Ogden/Hill AFB, Utah
Current Conditions -  °F | °C
As of 12:58 AM on Friday 24 Oct 2014 (Local Time) from KHIF Reporting Station
Clear Clear  
Wind Chill: 58°   Ceiling: Unl
Heat Index: 58°   Visibility: 10mi
Dew Point: 36°   Wind: 2mph
Humidity: 44%   Direction: 180°S
Pressure: 30.11"   Gusts: NA
Location:  41.12°N, 111.97°W
Report Text: KHIF 240658Z AUTO 18002KT 10SM CLR 14/02 A3011 RMK AO2 SLP154 T01420020 402060069
Loading
Personal Weather Stations






























Interactive Weather Map
Tropical Storm Tracking
New forecast layout! Learn more

10-Day Weather Forecast

Advertisements
Track Severe Weather on mobile